sensor_id;sensor_type;location;lat;lon;timestamp;P1;durP1;ratioP1;P2;durP2;ratioP2
73733;SDS011;62039;50.000;9.064;2023-12-14T00:00:00;7.27;;;6.50;;
73733;SDS011;62039;50.000;9.064;2023-12-14T00:02:27;6.70;;;6.00;;
73733;SDS011;62039;50.000;9.064;2023-12-14T00:04:57;8.10;;;6.57;;
73733;SDS011;62039;50.000;9.064;2023-12-14T00:07:24;8.87;;;6.83;;
73733;SDS011;62039;50.000;9.064;2023-12-14T00:09:51;7.63;;;6.67;;
73733;SDS011;62039;50.000;9.064;2023-12-14T00:12:18;9.20;;;6.50;;
73733;SDS011;62039;50.000;9.064;2023-12-14T00:14:45;7.23;;;6.53;;
73733;SDS011;62039;50.000;9.064;2023-12-14T00:17:12;9.03;;;6.83;;
73733;SDS011;62039;50.000;9.064;2023-12-14T00:19:39;8.20;;;7.00;;
73733;SDS011;62039;50.000;9.064;2023-12-14T00:22:08;7.70;;;6.57;;
73733;SDS011;62039;50.000;9.064;2023-12-14T00:24:35;7.43;;;6.20;;
73733;SDS011;62039;50.000;9.064;2023-12-14T00:27:02;8.17;;;6.17;;
73733;SDS011;62039;50.000;9.064;2023-12-14T00:29:29;9.03;;;6.23;;
73733;SDS011;62039;50.000;9.064;2023-12-14T00:31:56;6.37;;;5.60;;
73733;SDS011;62039;50.000;9.064;2023-12-14T00:34:23;6.43;;;5.83;;
73733;SDS011;62039;50.000;9.064;2023-12-14T00:36:50;7.80;;;6.47;;
73733;SDS011;62039;50.000;9.064;2023-12-14T00:39:20;7.60;;;6.00;;
73733;SDS011;62039;50.000;9.064;2023-12-14T00:41:46;7.33;;;6.60;;
73733;SDS011;62039;50.000;9.064;2023-12-14T00:44:13;9.07;;;6.60;;
73733;SDS011;62039;50.000;9.064;2023-12-14T00:46:40;8.03;;;6.30;;
73733;SDS011;62039;50.000;9.064;2023-12-14T00:49:07;9.47;;;6.83;;
73733;SDS011;62039;50.000;9.064;2023-12-14T00:51:34;10.27;;;7.57;;
73733;SDS011;62039;50.000;9.064;2023-12-14T00:54:01;8.33;;;7.03;;
73733;SDS011;62039;50.000;9.064;2023-12-14T00:56:31;7.63;;;6.80;;
73733;SDS011;62039;50.000;9.064;2023-12-14T00:58:58;7.30;;;6.60;;
73733;SDS011;62039;50.000;9.064;2023-12-14T01:01:25;7.30;;;6.57;;
73733;SDS011;62039;50.000;9.064;2023-12-14T01:03:51;7.17;;;6.47;;
73733;SDS011;62039;50.000;9.064;2023-12-14T01:06:18;6.90;;;6.00;;
73733;SDS011;62039;50.000;9.064;2023-12-14T01:08:45;6.83;;;6.10;;
73733;SDS011;62039;50.000;9.064;2023-12-14T01:11:12;6.33;;;5.73;;
73733;SDS011;62039;50.000;9.064;2023-12-14T01:13:42;6.27;;;5.67;;
73733;SDS011;62039;50.000;9.064;2023-12-14T01:16:09;6.47;;;5.30;;
73733;SDS011;62039;50.000;9.064;2023-12-14T01:18:36;7.47;;;6.07;;
73733;SDS011;62039;50.000;9.064;2023-12-14T01:21:03;6.00;;;5.40;;
73733;SDS011;62039;50.000;9.064;2023-12-14T01:23:30;7.17;;;6.13;;
73733;SDS011;62039;50.000;9.064;2023-12-14T01:25:58;6.87;;;6.20;;
73733;SDS011;62039;50.000;9.064;2023-12-14T01:28:25;7.23;;;5.93;;
73733;SDS011;62039;50.000;9.064;2023-12-14T01:30:55;6.50;;;5.80;;
73733;SDS011;62039;50.000;9.064;2023-12-14T01:33:22;7.30;;;5.93;;
73733;SDS011;62039;50.000;9.064;2023-12-14T01:35:49;6.97;;;6.27;;
73733;SDS011;62039;50.000;9.064;2023-12-14T01:38:16;7.03;;;5.90;;
73733;SDS011;62039;50.000;9.064;2023-12-14T01:40:43;8.07;;;6.37;;
73733;SDS011;62039;50.000;9.064;2023-12-14T01:43:10;6.90;;;6.00;;
73733;SDS011;62039;50.000;9.064;2023-12-14T01:45:37;7.00;;;6.30;;
73733;SDS011;62039;50.000;9.064;2023-12-14T01:48:07;8.00;;;6.27;;
73733;SDS011;62039;50.000;9.064;2023-12-14T01:50:34;7.23;;;6.53;;
73733;SDS011;62039;50.000;9.064;2023-12-14T01:53:01;10.50;;;6.50;;
73733;SDS011;62039;50.000;9.064;2023-12-14T01:55:28;7.13;;;6.17;;
73733;SDS011;62039;50.000;9.064;2023-12-14T01:57:55;7.53;;;6.60;;
73733;SDS011;62039;50.000;9.064;2023-12-14T02:00:23;7.70;;;6.30;;
73733;SDS011;62039;50.000;9.064;2023-12-14T02:02:56;7.43;;;6.67;;
73733;SDS011;62039;50.000;9.064;2023-12-14T02:05:25;8.93;;;6.93;;
73733;SDS011;62039;50.000;9.064;2023-12-14T02:07:52;7.90;;;6.30;;
73733;SDS011;62039;50.000;9.064;2023-12-14T02:10:19;7.43;;;6.10;;
73733;SDS011;62039;50.000;9.064;2023-12-14T02:12:46;6.80;;;6.10;;
73733;SDS011;62039;50.000;9.064;2023-12-14T02:15:13;7.83;;;6.93;;
73733;SDS011;62039;50.000;9.064;2023-12-14T02:17:40;7.30;;;6.37;;
73733;SDS011;62039;50.000;9.064;2023-12-14T02:20:07;7.00;;;6.30;;
73733;SDS011;62039;50.000;9.064;2023-12-14T02:22:47;12.13;;;7.00;;
73733;SDS011;62039;50.000;9.064;2023-12-14T02:25:15;7.63;;;6.83;;
73733;SDS011;62039;50.000;9.064;2023-12-14T02:27:42;6.83;;;6.17;;
73733;SDS011;62039;50.000;9.064;2023-12-14T02:30:09;8.40;;;6.90;;
73733;SDS011;62039;50.000;9.064;2023-12-14T02:32:37;8.40;;;6.67;;
73733;SDS011;62039;50.000;9.064;2023-12-14T02:35:04;7.10;;;6.40;;
73733;SDS011;62039;50.000;9.064;2023-12-14T02:37:32;7.20;;;6.47;;
73733;SDS011;62039;50.000;9.064;2023-12-14T02:40:02;7.33;;;6.20;;
73733;SDS011;62039;50.000;9.064;2023-12-14T02:42:29;6.77;;;6.13;;
73733;SDS011;62039;50.000;9.064;2023-12-14T02:44:57;7.40;;;6.23;;
73733;SDS011;62039;50.000;9.064;2023-12-14T02:47:23;9.13;;;6.40;;
73733;SDS011;62039;50.000;9.064;2023-12-14T02:49:50;6.57;;;5.87;;
73733;SDS011;62039;50.000;9.064;2023-12-14T02:52:17;7.50;;;5.70;;
73733;SDS011;62039;50.000;9.064;2023-12-14T02:54:44;6.53;;;5.57;;
73733;SDS011;62039;50.000;9.064;2023-12-14T02:57:14;6.87;;;5.37;;
73733;SDS011;62039;50.000;9.064;2023-12-14T02:59:41;5.67;;;5.17;;
73733;SDS011;62039;50.000;9.064;2023-12-14T03:02:08;6.00;;;5.33;;
73733;SDS011;62039;50.000;9.064;2023-12-14T03:04:37;6.83;;;5.67;;
73733;SDS011;62039;50.000;9.064;2023-12-14T03:07:04;6.07;;;5.47;;
73733;SDS011;62039;50.000;9.064;2023-12-14T03:09:31;6.87;;;5.87;;
73733;SDS011;62039;50.000;9.064;2023-12-14T03:11:59;6.70;;;5.97;;
73733;SDS011;62039;50.000;9.064;2023-12-14T03:14:31;7.13;;;6.43;;
73733;SDS011;62039;50.000;9.064;2023-12-14T03:16:59;7.50;;;6.20;;
73733;SDS011;62039;50.000;9.064;2023-12-14T03:19:26;8.87;;;6.57;;
73733;SDS011;62039;50.000;9.064;2023-12-14T03:21:53;6.70;;;6.00;;
73733;SDS011;62039;50.000;9.064;2023-12-14T03:24:20;6.83;;;5.80;;
73733;SDS011;62039;50.000;9.064;2023-12-14T03:26:47;7.80;;;7.00;;
73733;SDS011;62039;50.000;9.064;2023-12-14T03:29:14;7.67;;;6.07;;
73733;SDS011;62039;50.000;9.064;2023-12-14T03:31:44;7.20;;;6.10;;
73733;SDS011;62039;50.000;9.064;2023-12-14T03:34:11;6.10;;;5.47;;
73733;SDS011;62039;50.000;9.064;2023-12-14T03:36:38;8.17;;;6.13;;
73733;SDS011;62039;50.000;9.064;2023-12-14T03:39:05;7.57;;;6.53;;
73733;SDS011;62039;50.000;9.064;2023-12-14T03:41:32;7.57;;;6.27;;
73733;SDS011;62039;50.000;9.064;2023-12-14T03:43:59;7.00;;;6.00;;
73733;SDS011;62039;50.000;9.064;2023-12-14T03:46:26;6.70;;;6.10;;
73733;SDS011;62039;50.000;9.064;2023-12-14T03:48:55;7.93;;;6.80;;
73733;SDS011;62039;50.000;9.064;2023-12-14T03:51:22;6.50;;;5.57;;
73733;SDS011;62039;50.000;9.064;2023-12-14T03:53:49;6.17;;;5.57;;
73733;SDS011;62039;50.000;9.064;2023-12-14T03:56:16;6.50;;;5.90;;
73733;SDS011;62039;50.000;9.064;2023-12-14T03:58:43;7.37;;;6.60;;
73733;SDS011;62039;50.000;9.064;2023-12-14T04:01:16;6.83;;;6.03;;
73733;SDS011;62039;50.000;9.064;2023-12-14T04:03:43;6.90;;;6.20;;
73733;SDS011;62039;50.000;9.064;2023-12-14T04:06:13;6.80;;;6.10;;
73733;SDS011;62039;50.000;9.064;2023-12-14T04:08:40;7.60;;;6.30;;
73733;SDS011;62039;50.000;9.064;2023-12-14T04:11:07;7.20;;;6.47;;
73733;SDS011;62039;50.000;9.064;2023-12-14T04:13:35;7.40;;;6.70;;
73733;SDS011;62039;50.000;9.064;2023-12-14T04:16:02;7.87;;;7.07;;
73733;SDS011;62039;50.000;9.064;2023-12-14T04:18:29;7.77;;;6.93;;
73733;SDS011;62039;50.000;9.064;2023-12-14T04:20:56;7.20;;;6.50;;
73733;SDS011;62039;50.000;9.064;2023-12-14T04:23:25;6.83;;;6.10;;
73733;SDS011;62039;50.000;9.064;2023-12-14T04:25:52;8.13;;;6.20;;
73733;SDS011;62039;50.000;9.064;2023-12-14T04:28:19;6.67;;;5.90;;
73733;SDS011;62039;50.000;9.064;2023-12-14T04:30:46;7.33;;;6.37;;
73733;SDS011;62039;50.000;9.064;2023-12-14T04:33:13;8.93;;;6.80;;
73733;SDS011;62039;50.000;9.064;2023-12-14T04:35:40;7.27;;;6.50;;
73733;SDS011;62039;50.000;9.064;2023-12-14T04:38:07;7.77;;;6.97;;
73733;SDS011;62039;50.000;9.064;2023-12-14T04:40:37;7.13;;;6.43;;
73733;SDS011;62039;50.000;9.064;2023-12-14T04:43:06;6.70;;;6.07;;
73733;SDS011;62039;50.000;9.064;2023-12-14T04:45:33;7.00;;;6.30;;
73733;SDS011;62039;50.000;9.064;2023-12-14T04:48:00;8.33;;;5.93;;
73733;SDS011;62039;50.000;9.064;2023-12-14T04:50:27;7.53;;;6.83;;
73733;SDS011;62039;50.000;9.064;2023-12-14T04:52:54;7.97;;;6.53;;
73733;SDS011;62039;50.000;9.064;2023-12-14T04:55:21;7.10;;;6.40;;
73733;SDS011;62039;50.000;9.064;2023-12-14T04:57:50;7.43;;;6.30;;
73733;SDS011;62039;50.000;9.064;2023-12-14T05:00:17;6.93;;;6.00;;
73733;SDS011;62039;50.000;9.064;2023-12-14T05:02:47;8.13;;;7.33;;
73733;SDS011;62039;50.000;9.064;2023-12-14T05:05:14;7.67;;;6.87;;
73733;SDS011;62039;50.000;9.064;2023-12-14T05:07:41;8.27;;;7.07;;
73733;SDS011;62039;50.000;9.064;2023-12-14T05:10:08;8.63;;;7.07;;
73733;SDS011;62039;50.000;9.064;2023-12-14T05:12:35;8.40;;;7.27;;
73733;SDS011;62039;50.000;9.064;2023-12-14T05:15:06;8.83;;;6.97;;
73733;SDS011;62039;50.000;9.064;2023-12-14T05:17:33;8.73;;;7.13;;
73733;SDS011;62039;50.000;9.064;2023-12-14T05:20:00;8.33;;;6.77;;
73733;SDS011;62039;50.000;9.064;2023-12-14T05:22:27;7.03;;;6.33;;
73733;SDS011;62039;50.000;9.064;2023-12-14T05:24:55;9.73;;;6.63;;
73733;SDS011;62039;50.000;9.064;2023-12-14T05:27:22;7.97;;;6.43;;
73733;SDS011;62039;50.000;9.064;2023-12-14T05:29:49;8.33;;;6.23;;
73733;SDS011;62039;50.000;9.064;2023-12-14T05:32:18;7.20;;;6.40;;
73733;SDS011;62039;50.000;9.064;2023-12-14T05:34:46;6.50;;;5.90;;
73733;SDS011;62039;50.000;9.064;2023-12-14T05:37:13;6.43;;;4.97;;
73733;SDS011;62039;50.000;9.064;2023-12-14T05:39:41;6.43;;;5.57;;
73733;SDS011;62039;50.000;9.064;2023-12-14T05:42:08;6.87;;;6.03;;
73733;SDS011;62039;50.000;9.064;2023-12-14T05:44:35;7.70;;;6.10;;
73733;SDS011;62039;50.000;9.064;2023-12-14T05:47:02;5.93;;;5.27;;
73733;SDS011;62039;50.000;9.064;2023-12-14T05:49:32;7.40;;;5.83;;
73733;SDS011;62039;50.000;9.064;2023-12-14T05:51:59;8.27;;;6.33;;
73733;SDS011;62039;50.000;9.064;2023-12-14T05:54:26;6.87;;;6.03;;
73733;SDS011;62039;50.000;9.064;2023-12-14T05:56:53;9.43;;;6.77;;
73733;SDS011;62039;50.000;9.064;2023-12-14T05:59:20;8.53;;;6.73;;
73733;SDS011;62039;50.000;9.064;2023-12-14T06:01:47;7.50;;;6.70;;
73733;SDS011;62039;50.000;9.064;2023-12-14T06:04:14;7.80;;;6.83;;
73733;SDS011;62039;50.000;9.064;2023-12-14T06:06:44;9.33;;;6.90;;
73733;SDS011;62039;50.000;9.064;2023-12-14T06:09:11;8.13;;;7.10;;
73733;SDS011;62039;50.000;9.064;2023-12-14T06:11:38;8.67;;;6.83;;
73733;SDS011;62039;50.000;9.064;2023-12-14T06:14:04;8.70;;;7.37;;
73733;SDS011;62039;50.000;9.064;2023-12-14T06:16:31;8.17;;;7.07;;
73733;SDS011;62039;50.000;9.064;2023-12-14T06:18:58;7.77;;;6.50;;
73733;SDS011;62039;50.000;9.064;2023-12-14T06:21:25;7.90;;;6.67;;
73733;SDS011;62039;50.000;9.064;2023-12-14T06:23:55;7.80;;;7.00;;
73733;SDS011;62039;50.000;9.064;2023-12-14T06:26:22;8.40;;;6.97;;
73733;SDS011;62039;50.000;9.064;2023-12-14T06:28:49;7.37;;;6.67;;
73733;SDS011;62039;50.000;9.064;2023-12-14T06:31:16;8.50;;;6.53;;
73733;SDS011;62039;50.000;9.064;2023-12-14T06:33:44;7.03;;;6.33;;
73733;SDS011;62039;50.000;9.064;2023-12-14T06:36:11;9.33;;;7.50;;
73733;SDS011;62039;50.000;9.064;2023-12-14T06:38:38;8.23;;;6.67;;
73733;SDS011;62039;50.000;9.064;2023-12-14T06:41:07;8.47;;;7.40;;
73733;SDS011;62039;50.000;9.064;2023-12-14T06:43:34;7.57;;;6.87;;
73733;SDS011;62039;50.000;9.064;2023-12-14T06:46:01;8.10;;;7.10;;
73733;SDS011;62039;50.000;9.064;2023-12-14T06:48:28;7.73;;;6.97;;
73733;SDS011;62039;50.000;9.064;2023-12-14T06:50:55;8.07;;;6.70;;
73733;SDS011;62039;50.000;9.064;2023-12-14T06:53:22;7.20;;;6.13;;
73733;SDS011;62039;50.000;9.064;2023-12-14T06:55:49;7.93;;;7.10;;
73733;SDS011;62039;50.000;9.064;2023-12-14T06:58:19;9.53;;;6.73;;
73733;SDS011;62039;50.000;9.064;2023-12-14T07:00:46;8.63;;;7.50;;
73733;SDS011;62039;50.000;9.064;2023-12-14T07:03:13;9.67;;;7.50;;
73733;SDS011;62039;50.000;9.064;2023-12-14T07:05:42;9.77;;;8.27;;
73733;SDS011;62039;50.000;9.064;2023-12-14T07:08:09;8.07;;;7.17;;
73733;SDS011;62039;50.000;9.064;2023-12-14T07:10:36;10.57;;;7.37;;
73733;SDS011;62039;50.000;9.064;2023-12-14T07:13:03;9.77;;;7.50;;
73733;SDS011;62039;50.000;9.064;2023-12-14T07:15:32;8.27;;;7.33;;
73733;SDS011;62039;50.000;9.064;2023-12-14T07:17:59;8.17;;;6.83;;
73733;SDS011;62039;50.000;9.064;2023-12-14T07:20:27;8.73;;;7.67;;
73733;SDS011;62039;50.000;9.064;2023-12-14T07:22:54;10.10;;;7.97;;
73733;SDS011;62039;50.000;9.064;2023-12-14T07:25:21;8.90;;;8.00;;
73733;SDS011;62039;50.000;9.064;2023-12-14T07:27:48;10.50;;;8.33;;
73733;SDS011;62039;50.000;9.064;2023-12-14T07:30:15;11.70;;;8.90;;
73733;SDS011;62039;50.000;9.064;2023-12-14T07:32:45;9.17;;;8.13;;
73733;SDS011;62039;50.000;9.064;2023-12-14T07:35:12;9.83;;;8.83;;
73733;SDS011;62039;50.000;9.064;2023-12-14T07:37:39;12.57;;;11.27;;
73733;SDS011;62039;50.000;9.064;2023-12-14T07:40:06;12.77;;;11.10;;
73733;SDS011;62039;50.000;9.064;2023-12-14T07:42:34;12.97;;;11.23;;
73733;SDS011;62039;50.000;9.064;2023-12-14T07:45:02;10.77;;;9.67;;
73733;SDS011;62039;50.000;9.064;2023-12-14T07:47:29;12.37;;;9.67;;
73733;SDS011;62039;50.000;9.064;2023-12-14T07:49:59;10.10;;;8.93;;
73733;SDS011;62039;50.000;9.064;2023-12-14T07:52:26;10.43;;;8.77;;
73733;SDS011;62039;50.000;9.064;2023-12-14T07:54:53;9.63;;;7.93;;
73733;SDS011;62039;50.000;9.064;2023-12-14T07:57:20;10.43;;;8.97;;
73733;SDS011;62039;50.000;9.064;2023-12-14T07:59:46;11.17;;;9.03;;
73733;SDS011;62039;50.000;9.064;2023-12-14T08:02:13;12.93;;;10.27;;
73733;SDS011;62039;50.000;9.064;2023-12-14T08:04:40;11.43;;;9.70;;
73733;SDS011;62039;50.000;9.064;2023-12-14T08:07:10;11.10;;;9.13;;
73733;SDS011;62039;50.000;9.064;2023-12-14T08:09:37;10.90;;;8.50;;
73733;SDS011;62039;50.000;9.064;2023-12-14T08:12:04;9.60;;;8.37;;
73733;SDS011;62039;50.000;9.064;2023-12-14T08:14:32;11.53;;;8.57;;
73733;SDS011;62039;50.000;9.064;2023-12-14T08:16:59;10.70;;;8.60;;
73733;SDS011;62039;50.000;9.064;2023-12-14T08:19:26;9.33;;;8.43;;
73733;SDS011;62039;50.000;9.064;2023-12-14T08:21:53;10.03;;;8.43;;
73733;SDS011;62039;50.000;9.064;2023-12-14T08:24:22;8.37;;;7.53;;
73733;SDS011;62039;50.000;9.064;2023-12-14T08:26:49;8.90;;;7.80;;
73733;SDS011;62039;50.000;9.064;2023-12-14T08:29:16;8.50;;;7.60;;
73733;SDS011;62039;50.000;9.064;2023-12-14T08:31:43;9.10;;;7.40;;
73733;SDS011;62039;50.000;9.064;2023-12-14T08:34:10;9.27;;;7.60;;
73733;SDS011;62039;50.000;9.064;2023-12-14T08:36:37;9.27;;;7.83;;
73733;SDS011;62039;50.000;9.064;2023-12-14T08:39:04;10.13;;;7.60;;
73733;SDS011;62039;50.000;9.064;2023-12-14T08:41:33;10.00;;;8.43;;
73733;SDS011;62039;50.000;9.064;2023-12-14T08:44:00;9.80;;;7.87;;
73733;SDS011;62039;50.000;9.064;2023-12-14T08:46:27;8.80;;;7.83;;
73733;SDS011;62039;50.000;9.064;2023-12-14T08:48:54;10.23;;;8.33;;
73733;SDS011;62039;50.000;9.064;2023-12-14T08:51:21;10.73;;;8.90;;
73733;SDS011;62039;50.000;9.064;2023-12-14T08:53:48;10.17;;;8.30;;
73733;SDS011;62039;50.000;9.064;2023-12-14T08:56:15;11.37;;;8.83;;
73733;SDS011;62039;50.000;9.064;2023-12-14T08:58:44;29.37;;;20.33;;
73733;SDS011;62039;50.000;9.064;2023-12-14T09:01:11;31.53;;;23.00;;
73733;SDS011;62039;50.000;9.064;2023-12-14T09:03:45;32.43;;;23.13;;
73733;SDS011;62039;50.000;9.064;2023-12-14T09:06:12;24.40;;;18.83;;
73733;SDS011;62039;50.000;9.064;2023-12-14T09:08:39;26.93;;;19.00;;
73733;SDS011;62039;50.000;9.064;2023-12-14T09:11:06;22.17;;;16.53;;
73733;SDS011;62039;50.000;9.064;2023-12-14T09:13:33;18.50;;;13.80;;
73733;SDS011;62039;50.000;9.064;2023-12-14T09:16:03;52.07;;;32.73;;
73733;SDS011;62039;50.000;9.064;2023-12-14T09:18:30;28.80;;;20.23;;
73733;SDS011;62039;50.000;9.064;2023-12-14T09:20:57;28.07;;;19.90;;
73733;SDS011;62039;50.000;9.064;2023-12-14T09:23:24;28.60;;;19.20;;
73733;SDS011;62039;50.000;9.064;2023-12-14T09:25:51;21.93;;;16.57;;
73733;SDS011;62039;50.000;9.064;2023-12-14T09:28:18;27.37;;;19.70;;
73733;SDS011;62039;50.000;9.064;2023-12-14T09:30:45;32.03;;;23.40;;
73733;SDS011;62039;50.000;9.064;2023-12-14T09:33:15;37.93;;;26.40;;
73733;SDS011;62039;50.000;9.064;2023-12-14T09:35:42;26.97;;;19.37;;
73733;SDS011;62039;50.000;9.064;2023-12-14T09:38:09;18.63;;;14.77;;
73733;SDS011;62039;50.000;9.064;2023-12-14T09:40:36;13.63;;;11.90;;
73733;SDS011;62039;50.000;9.064;2023-12-14T09:43:06;12.07;;;10.23;;
73733;SDS011;62039;50.000;9.064;2023-12-14T09:45:34;11.20;;;8.87;;
73733;SDS011;62039;50.000;9.064;2023-12-14T09:48:02;9.27;;;8.13;;
73733;SDS011;62039;50.000;9.064;2023-12-14T09:50:32;7.63;;;6.83;;
73733;SDS011;62039;50.000;9.064;2023-12-14T09:53:01;7.87;;;7.07;;
73733;SDS011;62039;50.000;9.064;2023-12-14T09:55:28;8.37;;;6.70;;
73733;SDS011;62039;50.000;9.064;2023-12-14T09:57:55;7.13;;;6.30;;
73733;SDS011;62039;50.000;9.064;2023-12-14T10:00:34;8.63;;;6.07;;
73733;SDS011;62039;50.000;9.064;2023-12-14T10:03:18;7.33;;;6.43;;
73733;SDS011;62039;50.000;9.064;2023-12-14T10:05:49;7.63;;;6.07;;
73733;SDS011;62039;50.000;9.064;2023-12-14T10:08:16;7.50;;;6.60;;
73733;SDS011;62039;50.000;9.064;2023-12-14T10:10:44;7.77;;;6.50;;
73733;SDS011;62039;50.000;9.064;2023-12-14T10:13:11;7.10;;;6.23;;
73733;SDS011;62039;50.000;9.064;2023-12-14T10:15:42;9.33;;;6.53;;
73733;SDS011;62039;50.000;9.064;2023-12-14T10:18:10;7.10;;;6.40;;
73733;SDS011;62039;50.000;9.064;2023-12-14T10:20:37;7.87;;;6.43;;
73733;SDS011;62039;50.000;9.064;2023-12-14T10:23:07;8.10;;;7.20;;
73733;SDS011;62039;50.000;9.064;2023-12-14T10:25:35;8.07;;;6.77;;
73733;SDS011;62039;50.000;9.064;2023-12-14T10:28:02;7.80;;;6.90;;
73733;SDS011;62039;50.000;9.064;2023-12-14T10:30:29;9.20;;;6.33;;
73733;SDS011;62039;50.000;9.064;2023-12-14T10:32:59;8.43;;;6.60;;
73733;SDS011;62039;50.000;9.064;2023-12-14T10:35:26;8.17;;;6.87;;
73733;SDS011;62039;50.000;9.064;2023-12-14T10:37:53;8.13;;;6.53;;
73733;SDS011;62039;50.000;9.064;2023-12-14T10:40:24;7.93;;;6.50;;
73733;SDS011;62039;50.000;9.064;2023-12-14T10:42:52;7.70;;;6.80;;
73733;SDS011;62039;50.000;9.064;2023-12-14T10:45:29;9.13;;;6.20;;
73733;SDS011;62039;50.000;9.064;2023-12-14T10:47:58;8.27;;;6.13;;
73733;SDS011;62039;50.000;9.064;2023-12-14T10:50:26;6.90;;;5.97;;
73733;SDS011;62039;50.000;9.064;2023-12-14T10:52:55;8.43;;;7.50;;
73733;SDS011;62039;50.000;9.064;2023-12-14T10:55:27;11.27;;;8.63;;
73733;SDS011;62039;50.000;9.064;2023-12-14T10:57:58;12.37;;;8.87;;
73733;SDS011;62039;50.000;9.064;2023-12-14T11:00:25;11.40;;;7.90;;
73733;SDS011;62039;50.000;9.064;2023-12-14T11:02:52;9.50;;;8.17;;
73733;SDS011;62039;50.000;9.064;2023-12-14T11:05:19;9.10;;;7.33;;
73733;SDS011;62039;50.000;9.064;2023-12-14T11:07:50;9.23;;;7.03;;
73733;SDS011;62039;50.000;9.064;2023-12-14T11:10:22;7.13;;;6.27;;
73733;SDS011;62039;50.000;9.064;2023-12-14T11:12:52;7.53;;;6.73;;
73733;SDS011;62039;50.000;9.064;2023-12-14T11:15:22;7.77;;;6.30;;
73733;SDS011;62039;50.000;9.064;2023-12-14T11:20:49;7.50;;;5.80;;
73733;SDS011;62039;50.000;9.064;2023-12-14T11:23:18;6.47;;;5.87;;
73733;SDS011;62039;50.000;9.064;2023-12-14T11:25:54;7.77;;;6.37;;
73733;SDS011;62039;50.000;9.064;2023-12-14T11:28:28;7.77;;;6.27;;
73733;SDS011;62039;50.000;9.064;2023-12-14T11:30:56;8.30;;;7.17;;
73733;SDS011;62039;50.000;9.064;2023-12-14T11:33:23;7.00;;;6.27;;
73733;SDS011;62039;50.000;9.064;2023-12-14T11:35:51;6.60;;;6.00;;
73733;SDS011;62039;50.000;9.064;2023-12-14T11:38:18;7.10;;;6.40;;
73733;SDS011;62039;50.000;9.064;2023-12-14T11:40:45;7.23;;;6.53;;
73733;SDS011;62039;50.000;9.064;2023-12-14T11:43:13;6.73;;;6.03;;
73733;SDS011;62039;50.000;9.064;2023-12-14T11:45:43;8.10;;;6.03;;
73733;SDS011;62039;50.000;9.064;2023-12-14T11:48:10;8.87;;;6.57;;
73733;SDS011;62039;50.000;9.064;2023-12-14T11:50:39;7.50;;;6.57;;
73733;SDS011;62039;50.000;9.064;2023-12-14T11:53:09;6.83;;;6.17;;
73733;SDS011;62039;50.000;9.064;2023-12-14T11:55:38;7.97;;;7.03;;
73733;SDS011;62039;50.000;9.064;2023-12-14T11:58:06;7.63;;;6.47;;
73733;SDS011;62039;50.000;9.064;2023-12-14T12:00:34;7.40;;;6.70;;
73733;SDS011;62039;50.000;9.064;2023-12-14T12:03:10;7.53;;;6.60;;
73733;SDS011;62039;50.000;9.064;2023-12-14T12:05:39;6.83;;;6.13;;
73733;SDS011;62039;50.000;9.064;2023-12-14T12:08:08;9.37;;;7.23;;
73733;SDS011;62039;50.000;9.064;2023-12-14T12:10:36;7.57;;;6.70;;
73733;SDS011;62039;50.000;9.064;2023-12-14T12:13:04;7.93;;;6.87;;
73733;SDS011;62039;50.000;9.064;2023-12-14T12:15:31;9.47;;;6.93;;
73733;SDS011;62039;50.000;9.064;2023-12-14T12:17:59;7.13;;;6.43;;
73733;SDS011;62039;50.000;9.064;2023-12-14T12:20:29;7.37;;;6.57;;
73733;SDS011;62039;50.000;9.064;2023-12-14T12:22:56;8.00;;;6.30;;
73733;SDS011;62039;50.000;9.064;2023-12-14T12:25:23;6.90;;;6.20;;
73733;SDS011;62039;50.000;9.064;2023-12-14T12:27:50;7.77;;;6.90;;
73733;SDS011;62039;50.000;9.064;2023-12-14T12:30:17;8.37;;;6.47;;
73733;SDS011;62039;50.000;9.064;2023-12-14T12:32:44;7.30;;;6.43;;
73733;SDS011;62039;50.000;9.064;2023-12-14T12:35:11;8.97;;;6.90;;
73733;SDS011;62039;50.000;9.064;2023-12-14T12:37:41;8.33;;;6.90;;
73733;SDS011;62039;50.000;9.064;2023-12-14T12:40:08;8.30;;;7.20;;
73733;SDS011;62039;50.000;9.064;2023-12-14T12:42:36;7.77;;;6.40;;
73733;SDS011;62039;50.000;9.064;2023-12-14T12:45:03;7.17;;;6.37;;
73733;SDS011;62039;50.000;9.064;2023-12-14T12:47:32;7.63;;;6.73;;
73733;SDS011;62039;50.000;9.064;2023-12-14T12:50:00;7.80;;;6.27;;
73733;SDS011;62039;50.000;9.064;2023-12-14T12:52:27;7.80;;;6.20;;
73733;SDS011;62039;50.000;9.064;2023-12-14T12:54:56;6.73;;;5.80;;
73733;SDS011;62039;50.000;9.064;2023-12-14T12:57:23;6.73;;;6.10;;
73733;SDS011;62039;50.000;9.064;2023-12-14T12:59:50;7.03;;;6.00;;
73733;SDS011;62039;50.000;9.064;2023-12-14T13:02:17;7.10;;;5.63;;
73733;SDS011;62039;50.000;9.064;2023-12-14T13:04:44;6.10;;;5.50;;
73733;SDS011;62039;50.000;9.064;2023-12-14T13:07:11;5.77;;;5.17;;
73733;SDS011;62039;50.000;9.064;2023-12-14T13:09:39;6.47;;;5.53;;
73733;SDS011;62039;50.000;9.064;2023-12-14T13:12:09;6.50;;;5.90;;
73733;SDS011;62039;50.000;9.064;2023-12-14T13:14:36;7.33;;;5.83;;
73733;SDS011;62039;50.000;9.064;2023-12-14T13:17:03;5.90;;;5.30;;
73733;SDS011;62039;50.000;9.064;2023-12-14T13:19:30;6.67;;;6.07;;
73733;SDS011;62039;50.000;9.064;2023-12-14T13:21:57;6.50;;;5.70;;
73733;SDS011;62039;50.000;9.064;2023-12-14T13:24:24;6.00;;;5.33;;
73733;SDS011;62039;50.000;9.064;2023-12-14T13:26:51;6.70;;;5.70;;
73733;SDS011;62039;50.000;9.064;2023-12-14T13:29:21;7.87;;;6.27;;
73733;SDS011;62039;50.000;9.064;2023-12-14T13:31:47;6.37;;;5.77;;
73733;SDS011;62039;50.000;9.064;2023-12-14T13:34:14;7.17;;;5.80;;
73733;SDS011;62039;50.000;9.064;2023-12-14T13:36:41;7.17;;;6.47;;
73733;SDS011;62039;50.000;9.064;2023-12-14T13:39:08;6.17;;;5.57;;
73733;SDS011;62039;50.000;9.064;2023-12-14T13:41:35;5.90;;;5.37;;
73733;SDS011;62039;50.000;9.064;2023-12-14T13:44:15;7.47;;;6.33;;
73733;SDS011;62039;50.000;9.064;2023-12-14T13:46:45;6.70;;;6.03;;
73733;SDS011;62039;50.000;9.064;2023-12-14T13:49:12;7.70;;;6.27;;
73733;SDS011;62039;50.000;9.064;2023-12-14T13:51:39;7.63;;;6.67;;
73733;SDS011;62039;50.000;9.064;2023-12-14T13:54:06;7.90;;;6.30;;
73733;SDS011;62039;50.000;9.064;2023-12-14T13:56:33;6.57;;;5.87;;
73733;SDS011;62039;50.000;9.064;2023-12-14T13:59:00;7.20;;;6.50;;
73733;SDS011;62039;50.000;9.064;2023-12-14T14:01:27;6.90;;;6.20;;
73733;SDS011;62039;50.000;9.064;2023-12-14T14:03:56;8.97;;;7.67;;
73733;SDS011;62039;50.000;9.064;2023-12-14T14:06:23;9.37;;;7.70;;
73733;SDS011;62039;50.000;9.064;2023-12-14T14:08:50;8.07;;;7.20;;
73733;SDS011;62039;50.000;9.064;2023-12-14T14:11:17;7.10;;;6.40;;
73733;SDS011;62039;50.000;9.064;2023-12-14T14:13:44;7.30;;;6.60;;
73733;SDS011;62039;50.000;9.064;2023-12-14T14:16:11;7.70;;;6.17;;
73733;SDS011;62039;50.000;9.064;2023-12-14T14:18:38;8.67;;;7.13;;
73733;SDS011;62039;50.000;9.064;2023-12-14T14:21:07;9.47;;;8.40;;
73733;SDS011;62039;50.000;9.064;2023-12-14T14:23:34;7.97;;;6.90;;
73733;SDS011;62039;50.000;9.064;2023-12-14T14:26:01;6.70;;;5.80;;
73733;SDS011;62039;50.000;9.064;2023-12-14T14:28:28;5.60;;;5.03;;
73733;SDS011;62039;50.000;9.064;2023-12-14T14:30:55;4.87;;;4.27;;
73733;SDS011;62039;50.000;9.064;2023-12-14T14:33:22;4.60;;;3.67;;
73733;SDS011;62039;50.000;9.064;2023-12-14T14:35:49;4.13;;;3.07;;
73733;SDS011;62039;50.000;9.064;2023-12-14T14:38:19;2.60;;;2.40;;
73733;SDS011;62039;50.000;9.064;2023-12-14T14:40:45;2.70;;;2.50;;
73733;SDS011;62039;50.000;9.064;2023-12-14T14:43:12;2.70;;;2.00;;
73733;SDS011;62039;50.000;9.064;2023-12-14T14:45:39;1.80;;;1.70;;
73733;SDS011;62039;50.000;9.064;2023-12-14T14:48:06;1.87;;;1.70;;
73733;SDS011;62039;50.000;9.064;2023-12-14T14:50:33;1.77;;;1.60;;